createdAt,value
2023-10-13T05:00:43.045Z,0.00
2023-10-13T05:01:43.031Z,0.00
2023-10-13T05:02:43.028Z,0.00
2023-10-13T05:03:42.971Z,0.00
2023-10-13T05:04:43.004Z,0.00
2023-10-13T05:05:42.927Z,0.00
2023-10-13T05:06:42.954Z,0.00
2023-10-13T05:07:42.936Z,0.00
2023-10-13T05:08:44.578Z,0.00
2023-10-13T05:09:42.881Z,0.00
2023-10-13T05:10:42.927Z,0.00
2023-10-13T05:11:47.966Z,0.00
2023-10-13T05:12:42.857Z,0.00
2023-10-13T05:13:42.948Z,0.00
2023-10-13T05:14:42.844Z,0.00
2023-10-13T05:15:42.822Z,0.00
2023-10-13T05:16:43.020Z,0.00
2023-10-13T05:17:43.017Z,0.00
2023-10-13T05:18:42.782Z,0.00
2023-10-13T05:19:42.834Z,0.00
2023-10-13T05:20:42.780Z,0.00
2023-10-13T05:21:42.777Z,4.00
2023-10-13T05:22:47.877Z,4.00
2023-10-13T05:23:42.726Z,4.00
2023-10-13T05:24:42.718Z,4.00
2023-10-13T05:25:42.722Z,4.00
2023-10-13T05:26:42.715Z,4.00
2023-10-13T05:27:42.681Z,8.00
2023-10-13T05:28:42.788Z,8.00
2023-10-13T05:29:42.716Z,8.00
2023-10-13T05:30:42.671Z,8.00
2023-10-13T05:31:42.777Z,12.00
2023-10-13T05:32:42.774Z,12.00
2023-10-13T05:33:47.646Z,12.00
2023-10-13T05:34:42.698Z,16.00
2023-10-13T05:35:42.589Z,16.00
2023-10-13T05:36:42.588Z,16.00
2023-10-13T05:37:42.704Z,20.00
2023-10-13T05:38:42.565Z,24.00
2023-10-13T05:39:42.555Z,24.00
2023-10-13T05:40:42.682Z,32.00
2023-10-13T05:41:42.531Z,32.00
2023-10-13T05:42:42.528Z,32.00
2023-10-13T05:43:42.585Z,36.00
2023-10-13T05:44:47.529Z,40.00
2023-10-13T05:45:42.485Z,44.00
2023-10-13T05:46:42.572Z,44.00
2023-10-13T05:47:42.629Z,48.00
2023-10-13T05:48:42.581Z,52.00
2023-10-13T05:49:42.475Z,60.00
2023-10-13T05:50:42.427Z,68.00
2023-10-13T05:51:42.420Z,72.00
2023-10-13T05:52:42.549Z,80.00
2023-10-13T05:53:42.402Z,88.00
2023-10-13T05:54:42.391Z,96.00
2023-10-13T05:55:47.418Z,104.00
2023-10-13T05:56:42.380Z,112.00
2023-10-13T05:57:42.344Z,124.00
2023-10-13T05:58:42.438Z,128.00
2023-10-13T05:59:42.330Z,136.00
2023-10-13T06:00:42.314Z,144.00
2023-10-13T06:01:42.346Z,152.00
2023-10-13T06:02:42.542Z,168.00
2023-10-13T06:03:42.331Z,188.00
2023-10-13T06:04:42.392Z,212.00
2023-10-13T06:05:42.258Z,236.00
2023-10-13T06:06:47.271Z,256.00
2023-10-13T06:07:42.329Z,284.00
2023-10-13T06:08:42.233Z,292.00
2023-10-13T06:09:42.214Z,328.00
2023-10-13T06:10:42.279Z,332.00
2023-10-13T06:11:42.282Z,344.00
2023-10-13T06:12:42.181Z,356.00
2023-10-13T06:13:42.228Z,356.00
2023-10-13T06:14:42.163Z,364.00
2023-10-13T06:15:42.147Z,352.00
2023-10-13T06:16:42.221Z,388.00
2023-10-13T06:17:47.265Z,380.00
2023-10-13T06:18:42.122Z,368.00
2023-10-13T06:19:42.162Z,372.00
2023-10-13T06:20:42.125Z,380.00
2023-10-13T06:21:42.083Z,428.00
2023-10-13T06:22:42.115Z,436.00
2023-10-13T06:23:42.138Z,424.00
2023-10-13T06:24:42.048Z,420.00
2023-10-13T06:25:44.431Z,428.00
2023-10-13T06:26:42.023Z,412.00
2023-10-13T06:27:42.046Z,408.00
2023-10-13T06:28:47.172Z,404.00
2023-10-13T06:29:42.070Z,412.00
2023-10-13T06:30:41.985Z,424.00
2023-10-13T06:31:42.055Z,432.00
2023-10-13T06:32:42.143Z,444.00
2023-10-13T06:33:41.951Z,452.00
2023-10-13T06:34:41.996Z,464.00
2023-10-13T06:35:41.973Z,468.00
2023-10-13T06:36:41.947Z,472.00
2023-10-13T06:37:41.950Z,480.00
2023-10-13T06:38:41.900Z,488.00
2023-10-13T06:39:46.903Z,508.00
2023-10-13T06:40:41.909Z,524.00
2023-10-13T06:41:41.974Z,544.00
2023-10-13T06:42:41.849Z,556.00
2023-10-13T06:43:41.944Z,564.00
2023-10-13T06:44:41.827Z,580.00
2023-10-13T06:45:41.862Z,596.00
2023-10-13T06:46:41.905Z,604.00
2023-10-13T06:47:41.859Z,612.00
2023-10-13T06:48:41.779Z,620.00
2023-10-13T06:49:41.793Z,628.00
2023-10-13T06:50:46.790Z,632.00
2023-10-13T06:51:41.767Z,636.00
2023-10-13T06:52:41.774Z,640.00
2023-10-13T06:53:41.798Z,640.00
2023-10-13T06:54:41.715Z,664.00
2023-10-13T06:55:41.785Z,684.00
2023-10-13T06:56:41.723Z,708.00
2023-10-13T06:57:41.685Z,720.00
2023-10-13T06:58:41.738Z,748.00
2023-10-13T06:59:41.737Z,772.00
2023-10-13T07:00:41.658Z,796.00
2023-10-13T07:01:46.728Z,804.00
2023-10-13T07:02:41.862Z,812.00
2023-10-13T07:03:41.703Z,820.00
2023-10-13T07:04:41.694Z,828.00
2023-10-13T07:05:41.749Z,824.00
2023-10-13T07:06:41.585Z,864.00
2023-10-13T07:07:41.629Z,888.00
2023-10-13T07:08:41.585Z,912.00
2023-10-13T07:09:41.561Z,932.00
2023-10-13T07:10:41.560Z,944.00
2023-10-13T07:11:41.602Z,956.00
2023-10-13T07:12:46.544Z,968.00
2023-10-13T07:13:41.554Z,1020.00
2023-10-13T07:14:41.575Z,1068.00
2023-10-13T07:15:41.494Z,1112.00
2023-10-13T07:16:41.601Z,1164.00
2023-10-13T07:17:41.766Z,1244.00
2023-10-13T07:18:41.450Z,1308.00
2023-10-13T07:19:41.467Z,1304.00
2023-10-13T07:20:41.429Z,1276.00
2023-10-13T07:21:41.422Z,1156.00
2023-10-13T07:22:41.642Z,1084.00
2023-10-13T07:23:46.520Z,1156.00
2023-10-13T07:24:41.393Z,1140.00
2023-10-13T07:25:41.450Z,1116.00
2023-10-13T07:26:41.364Z,1092.00
2023-10-13T07:27:41.354Z,1124.00
2023-10-13T07:28:41.426Z,1136.00
2023-10-13T07:29:41.421Z,1144.00
2023-10-13T07:30:41.317Z,1152.00
2023-10-13T07:31:41.357Z,1168.00
2023-10-13T07:32:41.334Z,1168.00
2023-10-13T07:33:41.287Z,1192.00
2023-10-13T07:34:46.330Z,1212.00
2023-10-13T07:35:41.313Z,1184.00
2023-10-13T07:36:41.259Z,1220.00
2023-10-13T07:37:41.272Z,1124.00
2023-10-13T07:38:41.228Z,1204.00
2023-10-13T07:39:41.256Z,1244.00
2023-10-13T07:40:41.378Z,1308.00
2023-10-13T07:41:41.225Z,1388.00
2023-10-13T07:42:41.211Z,1432.00
2023-10-13T07:43:41.219Z,1400.00
2023-10-13T07:44:41.173Z,1332.00
2023-10-13T07:45:46.287Z,1200.00
2023-10-13T07:46:41.231Z,1272.00
2023-10-13T07:47:41.236Z,1244.00
2023-10-13T07:48:41.113Z,1312.00
2023-10-13T07:49:41.302Z,1348.00
2023-10-13T07:50:41.090Z,1448.00
2023-10-13T07:51:41.086Z,1780.00
2023-10-13T07:52:41.117Z,1964.00
2023-10-13T07:53:41.117Z,2116.00
2023-10-13T07:54:41.058Z,2044.00
2023-10-13T07:55:41.216Z,1936.00
2023-10-13T07:56:46.065Z,1796.00
2023-10-13T07:57:41.014Z,1612.00
2023-10-13T07:58:41.040Z,1756.00
2023-10-13T07:59:41.062Z,1972.00
2023-10-13T08:00:40.981Z,1828.00
2023-10-13T08:01:41.037Z,1896.00
2023-10-13T08:02:41.035Z,1924.00
2023-10-13T08:03:40.977Z,2476.00
2023-10-13T08:04:40.964Z,3268.00
2023-10-13T08:05:40.980Z,3884.00
2023-10-13T08:06:40.912Z,4080.00
2023-10-13T08:07:45.949Z,2972.00
2023-10-13T08:08:41.202Z,4408.00
2023-10-13T08:09:40.882Z,6620.00
2023-10-13T08:10:40.923Z,6976.00
2023-10-13T08:11:41.280Z,6628.00
2023-10-13T08:12:40.844Z,5408.00
2023-10-13T08:13:51.563Z,3956.00
2023-10-13T08:14:40.870Z,4740.00
2023-10-13T08:15:40.819Z,3440.00
2023-10-13T08:16:40.858Z,2000.00
2023-10-13T08:17:40.893Z,3560.00
2023-10-13T08:18:45.810Z,3740.00
2023-10-13T08:19:41.069Z,3672.00
2023-10-13T08:20:40.759Z,3000.00
2023-10-13T08:21:40.750Z,2740.00
2023-10-13T08:22:40.783Z,2268.00
2023-10-13T08:23:40.761Z,2168.00
2023-10-13T08:24:40.832Z,2184.00
2023-10-13T08:25:40.757Z,2512.00
2023-10-13T08:26:40.699Z,2612.00
2023-10-13T08:27:40.712Z,2996.00
2023-10-13T08:29:45.685Z,3756.00
2023-10-13T08:30:40.671Z,2760.00
2023-10-13T08:31:40.699Z,2132.00
2023-10-13T08:32:40.651Z,1904.00
2023-10-13T08:33:40.616Z,2068.00
2023-10-13T08:34:40.635Z,1980.00
2023-10-13T08:35:40.595Z,1916.00
2023-10-13T08:36:40.631Z,1900.00
2023-10-13T08:37:40.588Z,1968.00
2023-10-13T08:38:40.561Z,2104.00
2023-10-13T08:39:40.574Z,2116.00
2023-10-13T08:40:45.594Z,2060.00
2023-10-13T08:41:40.537Z,2156.00
2023-10-13T08:42:40.520Z,2160.00
2023-10-13T08:43:40.588Z,2300.00
2023-10-13T08:44:45.660Z,2668.00
2023-10-13T08:45:41.570Z,2712.00
2023-10-13T08:46:40.477Z,3024.00
2023-10-13T08:47:40.513Z,3264.00
2023-10-13T08:48:40.456Z,3424.00
2023-10-13T08:49:40.476Z,3464.00
2023-10-13T08:50:40.433Z,3368.00
2023-10-13T08:51:45.453Z,3384.00
2023-10-13T08:52:40.434Z,3296.00
2023-10-13T08:53:40.394Z,3132.00
2023-10-13T08:54:40.512Z,3236.00
2023-10-13T08:55:40.448Z,3396.00
2023-10-13T08:56:40.376Z,3744.00
2023-10-13T08:57:40.357Z,4308.00
2023-10-13T08:58:40.389Z,4680.00
2023-10-13T08:59:40.554Z,4324.00
2023-10-13T09:00:40.324Z,4640.00
2023-10-13T09:01:40.434Z,4916.00
2023-10-13T09:02:45.371Z,4404.00
2023-10-13T09:03:40.394Z,4000.00
2023-10-13T09:04:40.279Z,4336.00
2023-10-13T09:05:40.265Z,4108.00
2023-10-13T09:06:40.246Z,3948.00
2023-10-13T09:07:52.513Z,3696.00
2023-10-13T09:08:40.261Z,2632.00
2023-10-13T09:09:40.215Z,2076.00
2023-10-13T09:10:40.219Z,2292.00
2023-10-13T09:11:40.191Z,2216.00
2023-10-13T09:12:40.176Z,2260.00
2023-10-13T09:13:45.592Z,2312.00
2023-10-13T09:14:40.227Z,2168.00
2023-10-13T09:15:40.204Z,2248.00
2023-10-13T09:16:40.196Z,2292.00
2023-10-13T09:17:40.145Z,2152.00
2023-10-13T09:18:40.112Z,2424.00
2023-10-13T09:19:40.139Z,2284.00
2023-10-13T09:20:40.104Z,2540.00
2023-10-13T09:21:40.085Z,2400.00
2023-10-13T09:22:40.086Z,2276.00
2023-10-13T09:23:40.056Z,3636.00
2023-10-13T09:24:45.077Z,2604.00
2023-10-13T09:25:40.068Z,2768.00
2023-10-13T09:26:40.110Z,3252.00
2023-10-13T09:27:40.013Z,3048.00
2023-10-13T09:28:40.044Z,4308.00
2023-10-13T09:29:40.159Z,5580.00
2023-10-13T09:30:39.988Z,4852.00
2023-10-13T09:31:40.039Z,4252.00
2023-10-13T09:32:40.010Z,4024.00
2023-10-13T09:33:39.947Z,3768.00
2023-10-13T09:34:39.980Z,4000.00
2023-10-13T09:35:44.948Z,3352.00
2023-10-13T09:36:39.915Z,3412.00
2023-10-13T09:37:39.943Z,3664.00
2023-10-13T09:38:39.924Z,4284.00
2023-10-13T09:39:39.892Z,4516.00
2023-10-13T09:40:39.921Z,6088.00
2023-10-13T09:41:39.868Z,4540.00
2023-10-13T09:42:39.847Z,2708.00
2023-10-13T09:43:39.853Z,2228.00
2023-10-13T09:44:39.874Z,3404.00
2023-10-13T09:45:39.937Z,3196.00
2023-10-13T09:46:44.897Z,2096.00
2023-10-13T09:47:39.911Z,2060.00
2023-10-13T09:48:39.840Z,2004.00
2023-10-13T09:49:39.802Z,2120.00
2023-10-13T09:50:39.809Z,2356.00
2023-10-13T09:51:39.752Z,2196.00
2023-10-13T09:52:39.763Z,2132.00
2023-10-13T09:53:52.250Z,1896.00
2023-10-13T09:54:44.670Z,1924.00
2023-10-13T09:55:39.762Z,2008.00
2023-10-13T09:56:39.747Z,2080.00
2023-10-13T09:57:44.714Z,2100.00
2023-10-13T09:58:39.693Z,2468.00
2023-10-13T09:59:39.660Z,3732.00
2023-10-13T10:00:39.689Z,3588.00
2023-10-13T10:01:39.688Z,2224.00
2023-10-13T10:02:39.798Z,2192.00
2023-10-13T10:03:39.704Z,2120.00
2023-10-13T10:04:39.620Z,2148.00
2023-10-13T10:05:39.722Z,2136.00
2023-10-13T10:06:39.581Z,2144.00
2023-10-13T10:07:39.630Z,2116.00
2023-10-13T10:08:44.637Z,2136.00
2023-10-13T10:09:39.593Z,2248.00
2023-10-13T10:10:39.577Z,2480.00
2023-10-13T10:11:41.373Z,2996.00
2023-10-13T10:12:39.528Z,5900.00
2023-10-13T10:13:39.525Z,5588.00
2023-10-13T10:14:39.495Z,4008.00
2023-10-13T10:15:39.610Z,3320.00
2023-10-13T10:16:39.524Z,3456.00
2023-10-13T10:17:39.509Z,3796.00
2023-10-13T10:18:39.467Z,5288.00
2023-10-13T10:19:44.481Z,3644.00
2023-10-13T10:20:39.431Z,4224.00
2023-10-13T10:21:39.445Z,5092.00
2023-10-13T10:22:39.448Z,4152.00
2023-10-13T10:23:39.395Z,5416.00
2023-10-13T10:24:39.388Z,8892.00
2023-10-13T10:25:39.456Z,13612.00
2023-10-13T10:26:39.374Z,17088.00
2023-10-13T10:27:39.419Z,30496.00
2023-10-13T10:28:39.387Z,28192.00
2023-10-13T10:29:39.335Z,27232.00
2023-10-13T10:30:44.341Z,5864.00
2023-10-13T10:31:39.395Z,15840.00
2023-10-13T10:32:39.318Z,19616.00
2023-10-13T10:33:39.338Z,14352.00
2023-10-13T10:34:39.290Z,3196.00
2023-10-13T10:35:39.263Z,7568.00
2023-10-13T10:36:39.268Z,3864.00
2023-10-13T10:37:39.290Z,4300.00
2023-10-13T10:38:39.239Z,4784.00
2023-10-13T10:39:39.275Z,5204.00
2023-10-13T10:40:39.292Z,5544.00
2023-10-13T10:41:44.277Z,5964.00
2023-10-13T10:42:39.186Z,6156.00
2023-10-13T10:43:39.187Z,5752.00
2023-10-13T10:44:39.166Z,5304.00
2023-10-13T10:45:39.208Z,5496.00
2023-10-13T10:46:39.271Z,6076.00
2023-10-13T10:47:39.273Z,6420.00
2023-10-13T10:48:39.154Z,7368.00
2023-10-13T10:49:39.233Z,12816.00
2023-10-13T10:50:39.129Z,12044.00
2023-10-13T10:51:39.117Z,13712.00
2023-10-13T10:52:44.219Z,22400.00
2023-10-13T10:53:39.060Z,16000.00
2023-10-13T10:54:39.057Z,28256.00
2023-10-13T10:55:39.073Z,39712.00
2023-10-13T10:56:39.036Z,33536.00
2023-10-13T10:57:39.028Z,31136.00
2023-10-13T10:58:39.055Z,28288.00
2023-10-13T10:59:39.005Z,15904.00
2023-10-13T11:00:39.022Z,17216.00
2023-10-13T11:01:38.996Z,6940.00
2023-10-13T11:02:39.063Z,5760.00
2023-10-13T11:03:44.017Z,16368.00
2023-10-13T11:04:38.966Z,8672.00
2023-10-13T11:05:38.954Z,5304.00
2023-10-13T11:06:38.942Z,5392.00
2023-10-13T11:07:39.050Z,5588.00
2023-10-13T11:08:38.964Z,5360.00
2023-10-13T11:09:38.905Z,5472.00
2023-10-13T11:10:38.905Z,5744.00
2023-10-13T11:11:38.880Z,11004.00
2023-10-13T11:12:38.868Z,12624.00
2023-10-13T11:13:38.917Z,7280.00
2023-10-13T11:14:43.903Z,5560.00
2023-10-13T11:15:38.828Z,5404.00
2023-10-13T11:16:38.886Z,5532.00
2023-10-13T11:17:38.867Z,6368.00
2023-10-13T11:18:38.790Z,6260.00
2023-10-13T11:19:38.975Z,6616.00
2023-10-13T11:20:38.770Z,11488.00
2023-10-13T11:21:38.931Z,18656.00
2023-10-13T11:22:38.796Z,21536.00
2023-10-13T11:23:38.750Z,22560.00
2023-10-13T11:24:38.733Z,22240.00
2023-10-13T11:25:43.761Z,20992.00
2023-10-13T11:26:38.761Z,10420.00
2023-10-13T11:27:38.718Z,8264.00
2023-10-13T11:28:38.701Z,7464.00
2023-10-13T11:29:38.671Z,6532.00
2023-10-13T11:30:38.695Z,6188.00
2023-10-13T11:31:38.691Z,6232.00
2023-10-13T11:32:38.661Z,6444.00
2023-10-13T11:33:38.636Z,6732.00
2023-10-13T11:34:38.646Z,6404.00
2023-10-13T11:35:38.602Z,6348.00
2023-10-13T11:36:43.633Z,6844.00
2023-10-13T11:37:38.714Z,7328.00
2023-10-13T11:38:38.603Z,6432.00
2023-10-13T11:39:38.565Z,6028.00
2023-10-13T11:40:38.666Z,7080.00
2023-10-13T11:41:38.551Z,5064.00
2023-10-13T11:42:38.551Z,6360.00
2023-10-13T11:43:38.562Z,3240.00
2023-10-13T11:44:38.514Z,3200.00
2023-10-13T11:45:38.498Z,4232.00
2023-10-13T11:46:39.166Z,2644.00
2023-10-13T11:47:43.612Z,3180.00
2023-10-13T11:48:38.475Z,2340.00
2023-10-13T11:49:38.666Z,1928.00
2023-10-13T11:50:38.447Z,2228.00
2023-10-13T11:51:38.442Z,2396.00
2023-10-13T11:52:38.453Z,2164.00
2023-10-13T11:53:38.448Z,2264.00
2023-10-13T11:54:38.419Z,2208.00
2023-10-13T11:55:38.513Z,2416.00
2023-10-13T11:56:38.378Z,2456.00
2023-10-13T11:57:38.387Z,2248.00
2023-10-13T11:58:43.409Z,5016.00
2023-10-13T11:59:38.338Z,5976.00
2023-10-13T12:00:38.351Z,3640.00
2023-10-13T12:01:38.388Z,10668.00
2023-10-13T12:02:38.423Z,6864.00
2023-10-13T12:03:38.359Z,3784.00
2023-10-13T12:04:38.357Z,2920.00
2023-10-13T12:05:38.279Z,3320.00
2023-10-13T12:06:38.291Z,4104.00
2023-10-13T12:07:38.315Z,4932.00
2023-10-13T12:08:38.280Z,5848.00
2023-10-13T12:09:43.831Z,8148.00
2023-10-13T12:10:38.249Z,6596.00
2023-10-13T12:11:38.251Z,5248.00
2023-10-13T12:12:38.210Z,5612.00
2023-10-13T12:13:38.205Z,6388.00
2023-10-13T12:14:38.196Z,10336.00
2023-10-13T12:15:38.255Z,9860.00
2023-10-13T12:16:38.219Z,9980.00
2023-10-13T12:17:38.317Z,6500.00
2023-10-13T12:18:38.196Z,8424.00
2023-10-13T12:19:38.149Z,5208.00
2023-10-13T12:20:43.146Z,3996.00
2023-10-13T12:21:38.144Z,3960.00
2023-10-13T12:22:38.138Z,4564.00
2023-10-13T12:23:38.079Z,4992.00
2023-10-13T12:24:38.207Z,5844.00
2023-10-13T12:25:38.135Z,5408.00
2023-10-13T12:26:38.055Z,6092.00
2023-10-13T12:27:38.166Z,5384.00
2023-10-13T12:28:38.099Z,6240.00
2023-10-13T12:29:38.099Z,8244.00
2023-10-13T12:30:38.027Z,11052.00
2023-10-13T12:31:38.042Z,10492.00
2023-10-13T12:32:38.043Z,9452.00
2023-10-13T12:33:43.015Z,8804.00
2023-10-13T12:34:38.049Z,5624.00
2023-10-13T12:35:38.011Z,5052.00
2023-10-13T12:36:37.939Z,4668.00
2023-10-13T12:37:38.008Z,5308.00
2023-10-13T12:38:37.954Z,5444.00
2023-10-13T12:39:37.921Z,6616.00
2023-10-13T12:40:37.988Z,5460.00
2023-10-13T12:41:37.960Z,4728.00
2023-10-13T12:42:37.882Z,6852.00
2023-10-13T12:43:37.907Z,7228.00
2023-10-13T12:44:37.869Z,6156.00
2023-10-13T12:45:37.851Z,4940.00
2023-10-13T12:46:42.946Z,5192.00
2023-10-13T12:47:37.905Z,5684.00
2023-10-13T12:48:37.956Z,5252.00
2023-10-13T12:49:37.894Z,3556.00
2023-10-13T12:50:37.787Z,2204.00
2023-10-13T12:51:37.773Z,2064.00
2023-10-13T12:52:37.825Z,1972.00
2023-10-13T12:53:37.763Z,1972.00
2023-10-13T12:54:37.744Z,1976.00
2023-10-13T12:55:37.820Z,2000.00
2023-10-13T12:56:37.741Z,1896.00
2023-10-13T12:57:37.731Z,1892.00
2023-10-13T12:58:37.761Z,1932.00
2023-10-13T12:59:42.735Z,1836.00
2023-10-13T13:00:37.721Z,1812.00
2023-10-13T13:01:37.696Z,1752.00
2023-10-13T13:02:37.822Z,1752.00
2023-10-13T13:03:37.690Z,1732.00
2023-10-13T13:04:37.760Z,1728.00
2023-10-13T13:05:37.636Z,1732.00
2023-10-13T13:06:37.618Z,1488.00
2023-10-13T13:07:37.629Z,1308.00
2023-10-13T13:08:37.629Z,1208.00
2023-10-13T13:09:37.611Z,1176.00
2023-10-13T13:10:37.761Z,1184.00
2023-10-13T13:11:37.588Z,1304.00
2023-10-13T13:12:42.639Z,1420.00
2023-10-13T13:13:37.601Z,1672.00
2023-10-13T13:14:37.567Z,2180.00
2023-10-13T13:15:37.517Z,2228.00
2023-10-13T13:16:37.590Z,1808.00
2023-10-13T13:17:37.708Z,1644.00
2023-10-13T13:18:37.556Z,1456.00
2023-10-13T13:19:37.860Z,1608.00
2023-10-13T13:20:37.480Z,1828.00
2023-10-13T13:21:37.453Z,1832.00
2023-10-13T13:22:37.478Z,1380.00
2023-10-13T13:23:37.442Z,1208.00
2023-10-13T13:24:37.428Z,1120.00
2023-10-13T13:25:42.478Z,1052.00
2023-10-13T13:26:37.395Z,1108.00
2023-10-13T13:27:37.394Z,1084.00
2023-10-13T13:28:37.437Z,1016.00
2023-10-13T13:29:37.383Z,1048.00
2023-10-13T13:30:37.416Z,1448.00
2023-10-13T13:31:37.392Z,1448.00
2023-10-13T13:32:37.367Z,1492.00
2023-10-13T13:33:37.334Z,1560.00
2023-10-13T13:34:37.345Z,1724.00
2023-10-13T13:35:37.306Z,1820.00
2023-10-13T13:36:42.332Z,1844.00
2023-10-13T13:37:37.321Z,2012.00
2023-10-13T13:38:37.268Z,1872.00
2023-10-13T13:39:37.271Z,1892.00
2023-10-13T13:40:37.259Z,1964.00
2023-10-13T13:41:37.249Z,2024.00
2023-10-13T13:42:37.238Z,2068.00
2023-10-13T13:43:37.342Z,2052.00
2023-10-13T13:44:37.364Z,2016.00
2023-10-13T13:45:37.207Z,2000.00
2023-10-13T13:46:37.321Z,1996.00
2023-10-13T13:47:42.261Z,1920.00
2023-10-13T13:48:37.155Z,1880.00
2023-10-13T13:49:37.175Z,1808.00
2023-10-13T13:50:37.144Z,1752.00
2023-10-13T13:51:37.146Z,1692.00
2023-10-13T13:52:37.130Z,1668.00
2023-10-13T13:53:37.160Z,1312.00
2023-10-13T13:54:37.092Z,1164.00
2023-10-13T13:55:37.118Z,1120.00
2023-10-13T13:56:37.078Z,1028.00
2023-10-13T13:57:37.099Z,1076.00
2023-10-13T13:58:42.091Z,1288.00
2023-10-13T13:59:37.050Z,1572.00
2023-10-13T14:00:37.060Z,1924.00
2023-10-13T14:01:37.077Z,1928.00
2023-10-13T14:02:37.154Z,2396.00
2023-10-13T14:03:37.073Z,2664.00
2023-10-13T14:04:37.100Z,2860.00
2023-10-13T14:05:37.001Z,2952.00
2023-10-13T14:06:36.961Z,3140.00
2023-10-13T14:07:36.974Z,2924.00
2023-10-13T14:08:36.948Z,2876.00
2023-10-13T14:09:41.971Z,2876.00
2023-10-13T14:10:36.984Z,2904.00
2023-10-13T14:11:36.932Z,2580.00
2023-10-13T14:12:36.920Z,2632.00
2023-10-13T14:13:36.928Z,2660.00
2023-10-13T14:14:36.897Z,2472.00
2023-10-13T14:15:36.902Z,2760.00
2023-10-13T14:16:36.925Z,2624.00
2023-10-13T14:17:37.249Z,2524.00
2023-10-13T14:18:36.911Z,2360.00
2023-10-13T14:19:36.845Z,2256.00
2023-10-13T14:20:41.841Z,2220.00
2023-10-13T14:21:36.794Z,2196.00
2023-10-13T14:22:36.791Z,2176.00
2023-10-13T14:23:36.803Z,2156.00
2023-10-13T14:24:36.882Z,2276.00
2023-10-13T14:25:36.782Z,2336.00
2023-10-13T14:26:36.798Z,2536.00
2023-10-13T14:27:36.732Z,2776.00
2023-10-13T14:28:36.809Z,2744.00
2023-10-13T14:29:36.706Z,2784.00
2023-10-13T14:30:36.720Z,2432.00
2023-10-13T14:31:41.762Z,2468.00
2023-10-13T14:32:36.743Z,2396.00
2023-10-13T14:33:36.681Z,2464.00
2023-10-13T14:34:36.697Z,2480.00
2023-10-13T14:35:36.666Z,2512.00
2023-10-13T14:36:36.668Z,2552.00
2023-10-13T14:37:36.656Z,2340.00
2023-10-13T14:38:36.617Z,2476.00
2023-10-13T14:39:36.597Z,2500.00
2023-10-13T14:40:36.652Z,2500.00
2023-10-13T14:41:36.581Z,2476.00
2023-10-13T14:42:41.689Z,2412.00
2023-10-13T14:43:36.607Z,2260.00
2023-10-13T14:44:36.540Z,2352.00
2023-10-13T14:45:36.543Z,2344.00
2023-10-13T14:46:36.639Z,2268.00
2023-10-13T14:47:36.609Z,2240.00
2023-10-13T14:48:36.502Z,2116.00
2023-10-13T14:49:36.560Z,1996.00
2023-10-13T14:50:36.498Z,1936.00
2023-10-13T14:51:36.517Z,2076.00
2023-10-13T14:52:36.577Z,2100.00
2023-10-13T14:53:41.680Z,2100.00
2023-10-13T14:54:36.434Z,1700.00
2023-10-13T14:55:36.505Z,1904.00
2023-10-13T14:56:36.445Z,2088.00
2023-10-13T14:57:36.413Z,1940.00
2023-10-13T14:58:36.437Z,2032.00
2023-10-13T14:59:36.380Z,2020.00
2023-10-13T15:00:36.374Z,2004.00
2023-10-13T15:01:36.465Z,1968.00
2023-10-13T15:02:36.397Z,1916.00
2023-10-13T15:03:36.426Z,1948.00
2023-10-13T15:04:41.460Z,1956.00
2023-10-13T15:05:36.364Z,1928.00
2023-10-13T15:06:36.329Z,1912.00
2023-10-13T15:07:36.322Z,1876.00
2023-10-13T15:08:36.294Z,1804.00
2023-10-13T15:09:36.281Z,1884.00
2023-10-13T15:10:36.319Z,1884.00
2023-10-13T15:11:39.307Z,1820.00
2023-10-13T15:12:36.240Z,1748.00
2023-10-13T15:13:36.243Z,1684.00
2023-10-13T15:14:36.237Z,1660.00
2023-10-13T15:15:41.260Z,1604.00
2023-10-13T15:16:36.254Z,1588.00
2023-10-13T15:17:36.297Z,1456.00
2023-10-13T15:18:36.163Z,1364.00
2023-10-13T15:19:36.212Z,1208.00
2023-10-13T15:20:36.211Z,1188.00
2023-10-13T15:21:36.189Z,1164.00
2023-10-13T15:22:36.178Z,1076.00
2023-10-13T15:23:36.132Z,976.00
2023-10-13T15:24:36.284Z,908.00
2023-10-13T15:25:36.155Z,872.00
2023-10-13T15:26:41.105Z,844.00
2023-10-13T15:27:36.096Z,800.00
2023-10-13T15:28:36.095Z,768.00
2023-10-13T15:29:36.067Z,744.00
2023-10-13T15:30:36.036Z,736.00
2023-10-13T15:31:36.098Z,720.00
2023-10-13T15:32:36.095Z,704.00
2023-10-13T15:33:36.094Z,692.00
2023-10-13T15:34:36.066Z,684.00
2023-10-13T15:35:36.038Z,672.00
2023-10-13T15:36:35.997Z,656.00
2023-10-13T15:37:40.996Z,648.00
2023-10-13T15:38:35.970Z,636.00
2023-10-13T15:39:35.938Z,628.00
2023-10-13T15:40:35.948Z,616.00
2023-10-13T15:41:35.922Z,600.00
2023-10-13T15:42:35.903Z,588.00
2023-10-13T15:43:35.957Z,580.00
2023-10-13T15:44:35.885Z,572.00
2023-10-13T15:45:35.872Z,560.00
2023-10-13T15:48:40.932Z,504.00
2023-10-13T15:49:36.181Z,492.00
2023-10-13T15:50:35.974Z,480.00
2023-10-13T15:51:35.833Z,436.00
2023-10-13T15:52:35.824Z,392.00
2023-10-13T15:53:35.814Z,376.00
2023-10-13T15:54:35.816Z,364.00
2023-10-13T15:55:35.788Z,356.00
2023-10-13T15:56:35.779Z,348.00
2023-10-13T15:57:35.859Z,340.00
2023-10-13T15:58:35.736Z,336.00
2023-10-13T15:59:40.749Z,352.00
2023-10-13T16:00:35.746Z,340.00
2023-10-13T16:01:35.776Z,308.00
2023-10-13T16:02:35.731Z,296.00
2023-10-13T16:03:35.821Z,284.00
2023-10-13T16:04:35.768Z,280.00
2023-10-13T16:05:36.219Z,276.00
2023-10-13T16:06:35.691Z,264.00
2023-10-13T16:07:35.654Z,252.00
2023-10-13T16:08:35.710Z,244.00
2023-10-13T16:09:35.655Z,236.00
2023-10-13T16:10:40.630Z,224.00
2023-10-13T16:11:35.625Z,220.00
2023-10-13T16:12:35.615Z,208.00
2023-10-13T16:13:35.570Z,208.00
2023-10-13T16:14:35.650Z,204.00
2023-10-13T16:15:35.590Z,196.00
2023-10-13T16:16:35.542Z,192.00
2023-10-13T16:17:35.580Z,184.00
2023-10-13T16:18:35.514Z,180.00
2023-10-13T16:19:35.504Z,172.00
2023-10-13T16:20:35.547Z,164.00
2023-10-13T16:21:40.609Z,156.00
2023-10-13T16:22:35.463Z,148.00
2023-10-13T16:23:35.480Z,144.00
2023-10-13T16:24:35.500Z,136.00
2023-10-13T16:25:35.500Z,132.00
2023-10-13T16:26:35.428Z,124.00
2023-10-13T16:27:35.534Z,120.00
2023-10-13T16:28:35.404Z,112.00
2023-10-13T16:29:35.466Z,108.00
2023-10-13T16:30:35.389Z,104.00
2023-10-13T16:31:35.417Z,96.00
2023-10-13T16:32:40.484Z,96.00
2023-10-13T16:33:35.365Z,92.00
2023-10-13T16:34:35.437Z,84.00
2023-10-13T16:35:35.327Z,80.00
2023-10-13T16:36:35.393Z,76.00
2023-10-13T16:37:35.332Z,68.00
2023-10-13T16:38:35.327Z,64.00
2023-10-13T16:39:35.382Z,56.00
2023-10-13T16:40:35.268Z,52.00
2023-10-13T16:41:35.262Z,44.00
2023-10-13T16:42:35.321Z,40.00
2023-10-13T16:43:40.271Z,36.00
2023-10-13T16:44:35.259Z,28.00
2023-10-13T16:45:35.223Z,28.00
2023-10-13T16:46:35.238Z,24.00
2023-10-13T16:47:35.215Z,20.00
2023-10-13T16:48:35.210Z,16.00
2023-10-13T16:49:35.186Z,12.00
2023-10-13T16:50:35.233Z,16.00
2023-10-13T16:51:35.191Z,8.00
2023-10-13T16:52:35.154Z,8.00
2023-10-13T16:53:35.153Z,8.00
2023-10-13T16:54:40.234Z,4.00
2023-10-13T16:55:35.119Z,8.00
2023-10-13T16:56:35.089Z,4.00
2023-10-13T16:57:35.207Z,4.00
2023-10-13T16:58:35.085Z,4.00
2023-10-13T16:59:35.066Z,4.00
2023-10-13T17:00:35.065Z,4.00
2023-10-13T17:01:35.061Z,0.00
2023-10-13T17:02:35.120Z,0.00
2023-10-13T17:03:35.238Z,0.00
2023-10-13T17:04:35.182Z,0.00
2023-10-13T17:05:40.021Z,0.00
2023-10-13T17:06:35.135Z,0.00
2023-10-13T17:07:34.983Z,0.00
2023-10-13T17:08:34.983Z,0.00
2023-10-13T17:09:35.107Z,0.00
2023-10-13T17:10:35.033Z,0.00
2023-10-13T17:11:36.750Z,0.00
2023-10-13T17:12:34.945Z,0.00
2023-10-13T17:13:34.904Z,0.00
2023-10-13T17:14:34.891Z,0.00
2023-10-13T17:15:34.906Z,0.00
2023-10-13T17:16:39.972Z,0.00
2023-10-13T17:17:34.907Z,0.00
2023-10-13T17:18:34.882Z,0.00
2023-10-13T17:19:34.864Z,0.00
2023-10-13T17:20:34.868Z,0.00